createdAt,value
2023-10-26T00:00:33.154Z,986.9
2023-10-26T00:16:07.298Z,986.9
2023-10-26T00:31:41.734Z,987
2023-10-26T00:47:15.786Z,987
2023-10-26T01:02:50.272Z,986.9
2023-10-26T01:18:24.975Z,987.1
2023-10-26T01:33:59.697Z,987.3
2023-10-26T01:49:33.898Z,987.3
2023-10-26T02:05:08.039Z,987.3
2023-10-26T02:20:42.600Z,987.5
2023-10-26T02:36:17.002Z,987.7
2023-10-26T02:51:51.100Z,987.7
2023-10-26T03:07:25.271Z,987.8
2023-10-26T03:22:59.551Z,987.8
2023-10-26T03:38:33.613Z,988.1
2023-10-26T03:54:07.952Z,988.1
2023-10-26T04:09:42.334Z,988.2
2023-10-26T04:25:16.467Z,988.2
2023-10-26T04:41:03.615Z,988.2
2023-10-26T04:56:37.698Z,988.1
2023-10-26T05:12:11.851Z,988.1
2023-10-26T05:27:45.946Z,988.2
2023-10-26T05:43:19.966Z,988.3
2023-10-26T05:58:54.023Z,988.3
2023-10-26T06:14:28.082Z,988.4
2023-10-26T06:30:02.248Z,988.7
2023-10-26T06:45:36.666Z,988.8
2023-10-26T07:01:20.062Z,988.9
2023-10-26T07:17:20.141Z,989.1
2023-10-26T07:32:54.413Z,989.2
2023-10-26T07:48:29.023Z,989.2
2023-10-26T08:04:03.112Z,989.3
2023-10-26T08:19:37.450Z,989.3
2023-10-26T08:35:12.123Z,989.4
2023-10-26T08:50:46.426Z,989.6
2023-10-26T09:06:20.496Z,989.6
2023-10-26T09:21:54.557Z,989.6
2023-10-26T09:37:28.948Z,989.5
2023-10-26T09:53:03.595Z,989.5
2023-10-26T10:08:38.151Z,989.5
2023-10-26T10:24:12.439Z,989.6
2023-10-26T10:39:47.075Z,989.7
2023-10-26T10:55:21.374Z,989.8
2023-10-26T11:10:55.912Z,989.8
2023-10-26T11:26:30.339Z,989.9
2023-10-26T11:42:04.775Z,989.9
2023-10-26T11:57:39.549Z,990
2023-10-26T12:13:14.347Z,989.8
2023-10-26T12:28:48.883Z,989.7
2023-10-26T12:44:23.442Z,989.7
2023-10-26T12:59:57.933Z,989.7
2023-10-26T13:15:32.455Z,989.6
2023-10-26T13:31:07.423Z,989.8
2023-10-26T13:46:42.225Z,989.9
2023-10-26T14:02:16.820Z,989.7
2023-10-26T14:17:51.491Z,989.6
2023-10-26T14:33:26.396Z,989.5
2023-10-26T14:49:04.217Z,989.5
2023-10-26T15:04:39.105Z,989.4
2023-10-26T15:20:13.900Z,989.2
2023-10-26T15:35:48.268Z,989.2
2023-10-26T15:51:22.943Z,989.7
2023-10-26T16:06:57.728Z,989.7
2023-10-26T16:22:32.237Z,989.6
2023-10-26T16:38:06.764Z,989.7
2023-10-26T16:53:41.231Z,989.8
2023-10-26T17:09:15.760Z,989.7
2023-10-26T17:24:51.155Z,989.6
2023-10-26T17:40:25.774Z,989.6
2023-10-26T17:56:00.399Z,989.5
2023-10-26T18:11:34.912Z,989.4
2023-10-26T18:27:09.548Z,989.5
2023-10-26T18:42:44.036Z,989.4
2023-10-26T18:58:18.658Z,989.4
2023-10-26T19:13:53.404Z,989.4
2023-10-26T19:29:28.009Z,989.4
2023-10-26T19:45:02.641Z,989.5
2023-10-26T20:00:37.256Z,989.3
2023-10-26T20:16:13.720Z,989.3
2023-10-26T20:31:48.816Z,989.1
2023-10-26T20:47:23.494Z,989.1
2023-10-26T21:02:58.205Z,989
2023-10-26T21:18:32.710Z,988.9
2023-10-26T21:34:07.484Z,988.8
2023-10-26T21:49:42.243Z,988.7
2023-10-26T22:05:16.836Z,988.7
2023-10-26T22:20:51.378Z,988.7
2023-10-26T22:36:25.916Z,988.4
2023-10-26T22:52:00.646Z,988.1
2023-10-26T23:07:35.201Z,988.1
2023-10-26T23:23:09.792Z,988
2023-10-26T23:38:44.400Z,987.8
2023-10-26T23:54:18.884Z,987.6
